الصفحة الرئيسية
METAR-TAF:

METAR-TAF

مطار :

Heringsdorf, ألمانيا

دائرة عرض: 53-53N, خط طول: 014-09E, ارتفاع: 28 متر

مراقبة الطقس الحالي

تاريخ ووقت الإصدار 30 دقيقة قبل الساعة 01:20UTC
ريح 9 عقدة من الغرب
درجة الحرارة 15°درجة مئوية
الرطوبة 94%
ضغط 1021 hPa
الرؤية 10 كم أو أكثر

METAR: EDAH 180120Z AUTO 26009KT 9999 // NCD 15/14 Q1021

زمن: 03:50 (01:50 UTC)

توقعات

تاريخ ووقت الإصدار 8ساعات و 50 دقيقة قبل الساعة 17:00UTC
التوقعات صالحة من17 الساعة 18 UTC إلى 18 الساعة 03 UTC
ريح 9 عقدة من الغرب
الرؤية 10 كم أو أكثر
الغيوم لا تقل 1500 م ولا وجود لمزنة ركامية السحاب الأسود

TAF: EDAH 171700Z 1718/1803 26009KT CAVOK

أرصاد الطقس والتوقعات من أكثر من 4000 مطار (تقارير الطقس للمطار METAR والتنبؤ بالطقس بالمطارTAF).

المحطات المتاحة هي النقط الصفراء والحمراء على الخريطة.

حرك المؤشر فوق النقطة لمعرفة اسم المحطة.

ثم انقر لمعرفة أرصاد وتوقعات الطقس.

لتغيير الخارطة: اضغط على الأزرار الخضراء مع رمز الصليب الأسود للتكبير. على الزر الأخضر مع شرطة للتصغير، أو على الأسهم الخضراء للخرائط المجاورة.


METAR-TAF: